Del Mar, California
Current Conditions -  °F | °C
As of 6:28 AM on Thursday 30 Oct 2014 (Local Time) from KNKX Reporting Station
Moderate Fog Moderate Fog  
Wind Chill: 13°   Ceiling: Unl
Heat Index: 13°   Visibility: 0.25mi
Dew Point: 12°   Wind: 6mph
Humidity: 90%   Direction: 70°ENE
Pressure: 29.97"   Gusts: NA
Location:  32.96°N, 117.27°W
Report Text: KNKX 301328Z 07005KT 1/4SM FG CLR 13/12 A2997 RMK AO2 T01330117 $
Loading
Personal Weather Stations






























Interactive Weather Map
Tropical Storm Tracking
New forecast layout! Learn more

10-Day Weather Forecast

Advertisements
Track Severe Weather on mobile